Athol, ID

9:01 AM PDT on August 21, 2014 (GMT -0700)
Ramsey Estates | Change Station
CLOSE
Current Station
Personal Weather Station
Location: Rathdrum, ID
Elevation: 2330 ft
Nearby Weather Stations

Elev 2330 ft 47.87 °N, 116.81 °W | Updated 9 seconds ago

Mostly Cloudy
Mostly Cloudy
65.1 °F
Feels Like 65.1 °F
N
0.0
Wind Variable Wind from East
Gusts 2.7 mph

Today
High -- | Low -- °F
--% Chance of Precip.
Yesterday
High -- | Low -- °F
Precip. -- in
5:49 AM 7:48 PM
Waning Crescent, 13% visible
Pressure 30.00 in
Visibility 10.0 miles
Clouds Few 800 ft
Mostly Cloudy 12000 ft
Dew Point 28 °F
Humidity 24%
Rainfall 0.00 in
Snow Depth Not available.
UV 2 out of 12
Pollen 5.60 out of 12
Air Quality Not available.
Flu Activity Not available.
METAR KCOE 211555Z AUTO 07003KT 10SM FEW008 BKN120 16/12 A3000 RMK AO1

More Conditions Fewer Conditions

Pressure 30.00 in
Visibility 10.0 miles
Clouds Few 800 ft
Mostly Cloudy 12000 ft
Dew Point 28 °F
Humidity 24%
Rainfall 0.00 in
Snow Depth Not available.
UV 2 out of 12
Pollen 5.60 out of 12
Air Quality Not available.
Flu Activity Not available.
METAR KCOE 211555Z AUTO 07003KT 10SM FEW008 BKN120 16/12 A3000 RMK AO1

More Conditions Fewer Conditions

10-Day Weather Forecast

Almanac

Astronomy

Aug. 21, 2014 Rise Set
Actual Time 5:49 AM PDT 7:48 PM PDT
Civil Twilight 5:16 AM PDT 8:21 PM PDT
Nautical Twilight 4:35 AM PDT 9:02 PM PDT
Astronomical Twilight 3:49 AM PDT 9:48 PM PDT
Moon 2:16 AM PDT 5:26 PM PDT
Length of Visible Light 15h 05m
Length of Day
13h 58m
Tomorrow will be 3m 14s shorter.
Waning Crescent, 13% of the Moon is Illuminated
Today
Waning Crescent
Aug 25
New
Sep 2
First Quarter
Sep 8
Full
Sep 15
Last Quarter

Today's Extremes

State Highs State Lows

Community

WunderPhotos

Upload Photos

1,745,950 photos uploaded!

Nearby

Snow Depth

Station Depth Elevation
Mosquito Ridge 0 in 5200 ft
Schweitzer Basin 0 in 6090 ft
Bear Mountain 0 in 5400 ft
Sunset 0 in 5540 ft
Humboldt Gulch 2 in 4250 ft

Earthquake Activity

City Distance Mag. Time & Date
No recent earthquake activity has been reported nearby.
Minimum magnitude displayed is 2.5.

Coastal Water Temperatures

Place Temperature
No Stations Reporting

Nearby Weather Stations